Time;durP1;ratioP1;P1;durP2;ratioP2;P2;SDS_P1;SDS_P2;PMS_P1;PMS_P2;Temp;Humidity;BMP_temperature;BMP_pressure;BME280_temperature;BME280_humidity;BME280_pressure;Samples;Min_cycle;Max_cycle;Signal;HPM_P1;HPM_P2
2023/10/10 00:02:50;;;;;;;7.28;4.55;;;21.40;95.70;;;;;;6069941;22;45131;-63
2023/10/10 00:05:40;;;;;;;5.95;4.00;;;21.40;95.70;;;;;;6053775;22;45303;-63
2023/10/10 00:10:51;;;;;;;7.55;4.28;;;21.40;95.60;;;;;;6027830;22;45052;-63
2023/10/10 00:13:42;;;;;;;6.32;4.57;;;21.40;95.60;;;;;;6045002;22;45332;-63
2023/10/10 00:16:25;;;;;;;7.20;3.97;;;21.40;95.50;;;;;;6013688;22;45363;-63
2023/10/10 00:19:32;;;;;;;7.88;4.38;;;21.40;95.60;;;;;;6051222;22;46230;-63
2023/10/10 00:22:25;;;;;;;5.63;3.90;;;21.40;95.40;;;;;;6053997;22;45170;-63
2023/10/10 00:25:53;;;;;;;6.38;4.20;;;21.40;95.40;;;;;;6026352;22;45138;-63
2023/10/10 00:28:27;;;;;;;8.57;4.10;;;21.40;95.70;;;;;;6029952;22;45127;-63
2023/10/10 00:31:10;;;;;;;8.82;4.63;;;21.40;95.30;;;;;;6007820;22;46560;-63
2023/10/10 00:33:38;;;;;;;7.70;4.13;;;21.40;95.20;;;;;;6012571;22;45118;-63
2023/10/10 00:36:47;;;;;;;6.05;3.90;;;21.40;95.20;;;;;;6013959;22;45111;-63
2023/10/10 00:39:36;;;;;;;8.20;4.45;;;21.40;95.20;;;;;;5999008;22;45456;-63
2023/10/10 00:42:58;;;;;;;7.30;4.07;;;21.40;95.20;;;;;;6011688;22;46128;-63
2023/10/10 00:45:52;;;;;;;7.03;3.92;;;21.40;95.10;;;;;;6016412;22;45011;-63
2023/10/10 00:48:24;;;;;;;8.65;4.00;;;21.40;95.10;;;;;;5989487;22;45066;-63
2023/10/10 00:51:22;;;;;;;8.57;4.00;;;21.40;95.10;;;;;;6018981;22;45172;-63
2023/10/10 00:54:24;;;;;;;5.95;3.65;;;21.40;95.00;;;;;;6009219;22;45882;-63
2023/10/10 00:57:27;;;;;;;6.25;3.72;;;21.40;95.00;;;;;;6017302;22;45465;-63
2023/10/10 01:00:15;;;;;;;6.55;3.83;;;21.40;94.90;;;;;;6032599;22;45412;-63
2023/10/10 01:03:22;;;;;;;7.57;3.83;;;21.40;94.90;;;;;;5994524;22;45343;-63
2023/10/10 01:06:24;;;;;;;6.70;3.85;;;21.40;94.90;;;;;;6014240;22;47330;-63
2023/10/10 01:12:40;;;;;;;6.15;3.97;;;21.40;94.70;;;;;;5975533;22;45122;-63
2023/10/10 01:15:46;;;;;;;5.60;3.60;;;21.40;94.60;;;;;;6018499;22;45284;-63
2023/10/10 01:18:46;;;;;;;7.43;4.00;;;21.40;94.60;;;;;;6043050;22;46423;-62
2023/10/10 01:21:57;;;;;;;5.90;3.53;;;21.40;94.60;;;;;;5977604;22;45212;-63
2023/10/10 01:24:41;;;;;;;8.18;3.72;;;21.40;94.60;;;;;;5989689;22;45182;-62
2023/10/10 01:27:21;;;;;;;8.10;4.13;;;21.40;94.60;;;;;;5987660;22;45276;-63
2023/10/10 01:30:17;;;;;;;7.45;4.00;;;21.40;94.60;;;;;;6005028;22;46268;-63
2023/10/10 01:32:56;;;;;;;7.80;3.65;;;21.40;94.60;;;;;;6004282;22;45346;-63
2023/10/10 01:35:49;;;;;;;7.95;4.28;;;21.40;94.60;;;;;;5981252;22;45133;-63
2023/10/10 01:39:07;;;;;;;5.88;3.85;;;21.40;94.60;;;;;;5995126;22;45266;-63
2023/10/10 01:44:22;;;;;;;8.32;3.63;;;21.40;94.60;;;;;;5994469;22;45169;-63
2023/10/10 01:47:34;;;;;;;11.38;4.68;;;21.40;94.60;;;;;;5994416;22;45200;-63
2023/10/10 01:50:07;;;;;;;7.55;4.18;;;21.40;94.60;;;;;;6008974;22;45329;-62
2023/10/10 01:52:46;;;;;;;5.35;3.60;;;21.40;94.60;;;;;;6028960;22;45150;-63
2023/10/10 01:55:24;;;;;;;7.35;4.03;;;21.40;94.60;;;;;;6004398;22;45263;-63
2023/10/10 01:58:20;;;;;;;6.75;3.97;;;21.40;94.60;;;;;;5998327;22;44892;-63
2023/10/10 02:00:51;;;;;;;6.50;3.78;;;21.40;94.60;;;;;;6000500;22;45399;-63
2023/10/10 02:03:23;;;;;;;5.85;3.83;;;21.40;94.60;;;;;;5978360;22;45612;-63
2023/10/10 02:13:25;;;;;;;8.15;4.18;;;21.40;94.30;;;;;;5966973;22;45407;-62
2023/10/10 02:16:11;;;;;;;6.95;3.80;;;21.40;94.20;;;;;;5974500;22;47497;-62
2023/10/10 02:18:51;;;;;;;5.88;3.78;;;21.40;94.20;;;;;;5968824;22;45315;-63
2023/10/10 02:21:47;;;;;;;6.50;3.83;;;21.40;94.30;;;;;;6022070;22;45081;-62
2023/10/10 02:24:38;;;;;;;7.97;4.30;;;21.40;94.20;;;;;;5980992;22;45251;-62
2023/10/10 02:27:32;;;;;;;7.50;3.97;;;21.40;94.20;;;;;;5981402;22;45383;-62
2023/10/10 02:30:34;;;;;;;6.45;3.55;;;21.40;94.10;;;;;;5992027;22;45266;-62
2023/10/10 02:33:30;;;;;;;6.43;3.90;;;21.40;94.10;;;;;;5982987;22;44858;-62
2023/10/10 02:36:30;;;;;;;6.60;3.85;;;21.40;94.00;;;;;;6005113;22;45396;-62
2023/10/10 02:39:32;;;;;;;6.78;3.97;;;21.40;94.00;;;;;;6005713;22;46532;-62
2023/10/10 02:42:04;;;;;;;5.05;3.42;;;21.40;94.00;;;;;;5968057;22;45311;-62
2023/10/10 02:44:57;;;;;;;7.10;4.10;;;21.40;94.00;;;;;;5991384;22;45385;-62
2023/10/10 02:47:53;;;;;;;7.05;3.92;;;21.40;94.00;;;;;;5981586;22;45237;-62
2023/10/10 02:53:22;;;;;;;8.10;4.45;;;21.40;94.00;;;;;;6004359;22;45391;-62
2023/10/10 02:55:51;;;;;;;5.90;3.80;;;21.40;94.00;;;;;;5993071;22;45420;-62
2023/10/10 02:58:43;;;;;;;7.20;4.13;;;21.40;94.00;;;;;;5973077;22;45347;-62
2023/10/10 03:05:06;;;;;;;7.25;4.15;;;21.30;93.90;;;;;;5978899;22;45324;-62
2023/10/10 03:07:50;;;;;;;5.55;3.65;;;21.30;93.80;;;;;;5985685;22;45420;-62
2023/10/10 03:11:00;;;;;;;6.28;4.22;;;21.40;93.80;;;;;;5969023;22;45312;-62
2023/10/10 03:14:00;;;;;;;7.57;4.05;;;21.40;93.80;;;;;;5989835;22;45392;-62
2023/10/10 03:19:42;;;;;;;5.75;3.70;;;21.40;93.70;;;;;;5971345;22;45065;-62
2023/10/10 03:22:29;;;;;;;6.80;4.13;;;21.40;93.70;;;;;;5995753;22;45096;-62
2023/10/10 03:25:37;;;;;;;7.72;3.95;;;21.40;93.70;;;;;;5959664;22;45293;-62
2023/10/10 03:28:34;;;;;;;5.65;3.50;;;21.40;93.60;;;;;;5967855;22;45130;-62
2023/10/10 03:31:23;;;;;;;7.00;3.72;;;21.40;93.50;;;;;;5982048;22;44941;-62
2023/10/10 03:39:54;;;;;;;5.70;3.58;;;21.40;93.80;;;;;;5999078;22;45039;-62
2023/10/10 05:25:59;;;;;;;7.63;3.80;;;21.40;92.60;;;;;;5965426;22;45130;-62
2023/10/10 05:28:51;;;;;;;7.53;4.03;;;21.30;92.60;;;;;;6056648;22;45278;-62
2023/10/10 05:31:21;;;;;;;7.13;3.85;;;21.40;92.50;;;;;;6156132;22;45331;-62
2023/10/10 05:33:48;;;;;;;5.80;3.80;;;21.40;92.60;;;;;;6183677;22;45404;-62
2023/10/10 05:36:19;;;;;;;6.18;4.00;;;21.40;92.50;;;;;;6178089;22;45084;-62
2023/10/10 05:38:48;;;;;;;5.70;3.90;;;21.30;92.30;;;;;;6193164;22;44854;-62
2023/10/10 05:41:40;;;;;;;7.47;3.97;;;21.30;91.80;;;;;;6200115;22;44874;-62
2023/10/10 05:44:30;;;;;;;7.10;4.10;;;21.30;91.10;;;;;;6206706;22;46489;-62
2023/10/10 05:47:20;;;;;;;5.95;4.10;;;21.30;90.60;;;;;;6209562;22;44956;-62
2023/10/10 05:50:03;;;;;;;7.53;4.05;;;21.20;90.20;;;;;;6210629;22;45089;-62
2023/10/10 05:52:33;;;;;;;6.85;4.60;;;21.20;89.90;;;;;;6195734;22;44882;-61
2023/10/10 05:55:00;;;;;;;7.68;4.30;;;21.20;90.00;;;;;;6135756;22;46353;-61
2023/10/10 05:57:28;;;;;;;8.88;4.22;;;21.20;89.20;;;;;;5983199;22;45216;-62
2023/10/10 06:00:27;;;;;;;8.32;4.38;;;21.20;89.10;;;;;;6148549;22;45095;-61
2023/10/10 06:03:12;;;;;;;7.15;4.10;;;21.20;88.30;;;;;;6215485;22;45009;-61
2023/10/10 06:06:06;;;;;;;7.80;3.60;;;21.20;88.40;;;;;;6211102;22;45250;-61
2023/10/10 06:08:44;;;;;;;6.93;3.75;;;21.20;88.70;;;;;;6204618;22;45021;-62
2023/10/10 06:11:15;;;;;;;6.88;4.07;;;21.20;89.60;;;;;;6215575;22;45087;-62
2023/10/10 06:13:44;;;;;;;6.75;3.55;;;21.20;89.80;;;;;;6216580;22;44995;-62
2023/10/10 06:16:46;;;;;;;6.63;3.95;;;21.20;89.90;;;;;;6192678;22;46543;-61
2023/10/10 06:19:33;;;;;;;8.63;3.80;;;21.20;90.00;;;;;;6105070;22;45122;-62
2023/10/10 06:22:02;;;;;;;6.03;3.38;;;21.20;90.10;;;;;;6207027;22;45007;-61
2023/10/10 06:24:43;;;;;;;6.07;3.60;;;21.20;90.20;;;;;;6192883;22;44796;-61
2023/10/10 06:27:13;;;;;;;7.53;3.65;;;21.20;90.20;;;;;;6191069;22;45407;-61
2023/10/10 06:30:20;;;;;;;8.75;3.88;;;21.30;90.40;;;;;;6028824;22;45115;-61
2023/10/10 06:39:21;;;;;;;6.85;3.55;;;21.30;90.50;;;;;;6209803;22;45067;-61
2023/10/10 06:41:54;;;;;;;6.20;3.80;;;21.30;90.60;;;;;;6217038;22;45062;-61
2023/10/10 06:44:48;;;;;;;6.47;3.55;;;21.30;90.70;;;;;;6218067;22;44982;-62
2023/10/10 06:47:39;;;;;;;7.95;3.58;;;21.30;90.70;;;;;;6218335;22;45071;-62
2023/10/10 06:50:21;;;;;;;6.75;3.33;;;21.30;90.70;;;;;;6217110;22;46256;-62
2023/10/10 06:53:28;;;;;;;6.45;3.15;;;21.40;90.80;;;;;;6217782;22;45090;-62
2023/10/10 06:59:29;;;;;;;5.75;3.30;;;21.40;90.90;;;;;;6218125;22;45202;-62
2023/10/10 07:02:21;;;;;;;5.65;3.30;;;21.40;90.90;;;;;;6218025;22;46217;-62
2023/10/10 07:05:15;;;;;;;7.50;3.05;;;21.30;91.00;;;;;;6217976;22;44445;-62
2023/10/10 07:07:52;;;;;;;5.20;2.85;;;21.40;91.00;;;;;;6218370;22;45078;-62
2023/10/10 07:10:32;;;;;;;6.00;3.47;;;21.40;91.10;;;;;;6218434;22;45073;-62
2023/10/10 07:13:13;;;;;;;5.95;3.33;;;21.40;91.10;;;;;;6217607;22;45450;-62
2023/10/10 07:15:52;;;;;;;8.13;3.58;;;21.40;91.10;;;;;;6217677;22;44954;-62
2023/10/10 07:18:42;;;;;;;5.20;3.15;;;21.30;91.10;;;;;;6217901;22;44689;-62
2023/10/10 07:24:17;;;;;;;5.78;3.38;;;21.40;91.20;;;;;;6209962;22;45309;-62
2023/10/10 07:27:04;;;;;;;7.25;3.50;;;21.40;91.20;;;;;;6218215;22;44932;-62
2023/10/10 07:30:08;;;;;;;5.82;3.15;;;21.40;91.30;;;;;;6217377;22;45091;-62
2023/10/10 07:36:06;;;;;;;4.65;2.83;;;21.40;91.20;;;;;;6216704;22;46444;-62
2023/10/10 07:38:54;;;;;;;5.00;2.97;;;21.40;91.20;;;;;;6217759;22;45133;-62
2023/10/10 07:41:48;;;;;;;5.22;2.95;;;21.40;91.30;;;;;;6217978;22;44952;-62
2023/10/10 07:44:31;;;;;;;6.28;3.40;;;21.40;91.40;;;;;;6217890;22;44945;-62
2023/10/10 07:47:31;;;;;;;8.50;3.63;;;21.40;91.30;;;;;;6217618;22;45084;-62
2023/10/10 07:50:08;;;;;;;6.20;3.35;;;21.40;91.30;;;;;;6027887;22;45172;-62
2023/10/10 07:53:12;;;;;;;6.55;3.70;;;21.40;91.70;;;;;;6165297;22;45044;-62
2023/10/10 07:56:00;;;;;;;5.07;3.40;;;21.50;91.40;;;;;;6217327;22;45130;-62
2023/10/10 07:58:59;;;;;;;7.53;3.53;;;21.40;91.40;;;;;;6217726;22;47460;-62
2023/10/10 08:01:37;;;;;;;7.38;3.50;;;21.40;91.50;;;;;;6192149;22;45049;-62
2023/10/10 08:04:12;;;;;;;6.03;3.38;;;21.40;91.50;;;;;;6015719;22;45266;-62
2023/10/10 08:09:29;;;;;;;6.35;3.28;;;21.50;91.60;;;;;;6215709;22;45224;-62
2023/10/10 08:12:04;;;;;;;9.00;3.00;;;21.50;91.60;;;;;;6216215;22;46484;-62
2023/10/10 08:14:41;;;;;;;7.30;2.90;;;21.50;91.70;;;;;;6217430;22;45055;-62
2023/10/10 08:17:51;;;;;;;6.35;3.45;;;21.50;91.70;;;;;;6211585;22;44665;-62
2023/10/10 08:23:25;;;;;;;6.82;3.40;;;21.50;91.90;;;;;;6186887;22;45041;-62
2023/10/10 08:26:39;;;;;;;5.72;3.15;;;21.40;92.00;;;;;;6184136;23;45105;-62
2023/10/10 08:29:18;;;;;;;5.13;3.15;;;21.50;92.20;;;;;;6187367;23;44874;-62
2023/10/10 08:32:05;;;;;;;5.75;3.15;;;21.50;92.10;;;;;;6175754;23;46566;-65
2023/10/10 08:35:04;;;;;;;9.20;3.60;;;21.50;92.00;;;;;;5957495;23;45302;-62
2023/10/10 08:38:42;;;;;;;8.77;3.30;;;21.60;92.20;;;;;;5914247;23;45363;-62
2023/10/10 08:41:52;;;;;;;6.18;3.60;;;21.50;92.20;;;;;;5912830;22;45375;-62
2023/10/10 08:44:28;;;;;;;5.28;2.97;;;21.50;92.30;;;;;;5940257;23;46928;-63
2023/10/10 08:47:16;;;;;;;8.05;3.42;;;21.50;92.50;;;;;;5939548;23;44913;-62
2023/10/10 08:49:47;;;;;;;7.57;3.47;;;21.50;92.40;;;;;;5913587;23;45048;-63
2023/10/10 08:52:55;;;;;;;5.78;2.75;;;21.50;92.50;;;;;;5916247;23;45127;-63
2023/10/10 08:58:18;;;;;;;5.03;2.72;;;21.50;92.50;;;;;;5928971;23;45253;-63
2023/10/10 09:00:45;;;;;;;15.20;3.40;;;21.50;92.50;;;;;;5933263;23;45257;-62
2023/10/10 09:03:13;;;;;;;60.70;7.10;;;21.50;93.40;;;;;;5941368;23;45190;-63
2023/10/10 09:06:17;;;;;;;70.28;7.68;;;21.60;94.00;;;;;;5933974;23;45666;-60
2023/10/10 09:09:32;;;;;;;43.22;5.88;;;21.60;94.10;;;;;;5933808;23;45575;-57
2023/10/10 09:17:49;;;;;;;66.05;6.55;;;21.70;94.90;;;;;;5919401;23;45385;-63
2023/10/10 09:20:45;;;;;;;34.97;6.00;;;21.70;94.80;;;;;;5940952;23;45132;-62
2023/10/10 09:23:42;;;;;;;26.23;5.20;;;21.60;94.60;;;;;;5944916;23;44810;-62
2023/10/10 09:26:29;;;;;;;15.15;4.10;;;21.60;94.60;;;;;;5903700;22;45496;-62
2023/10/10 09:29:30;;;;;;;17.10;3.88;;;21.60;94.70;;;;;;5906437;23;46118;-62
2023/10/10 09:32:06;;;;;;;19.48;4.45;;;21.60;94.70;;;;;;5929018;22;45400;-62
2023/10/10 09:34:49;;;;;;;22.77;4.85;;;21.60;94.70;;;;;;5936500;22;45517;-62
2023/10/10 09:37:17;;;;;;;14.05;4.18;;;21.60;94.80;;;;;;5934174;23;45148;-62
2023/10/10 09:43:13;;;;;;;17.30;4.30;;;21.60;95.30;;;;;;5921635;22;45255;-62
2023/10/10 09:54:36;;;;;;;8.20;3.42;;;21.60;95.40;;;;;;5919428;23;45308;-60
2023/10/10 09:57:08;;;;;;;7.07;3.60;;;21.60;95.50;;;;;;5895227;23;45088;-63
2023/10/10 09:59:57;;;;;;;10.60;3.55;;;21.60;95.30;;;;;;5893726;23;45233;-62
2023/10/10 10:03:00;;;;;;;7.03;3.30;;;21.60;95.60;;;;;;5928461;23;47245;-62
2023/10/10 10:06:02;;;;;;;7.95;3.47;;;21.60;95.60;;;;;;5949448;23;45215;-62
2023/10/10 10:08:46;;;;;;;8.82;3.58;;;21.70;95.80;;;;;;5943799;23;45275;-62
2023/10/10 10:11:48;;;;;;;8.38;3.22;;;21.70;95.80;;;;;;5930380;23;45177;-62
2023/10/10 10:14:35;;;;;;;6.55;3.33;;;21.70;95.90;;;;;;5904321;23;47196;-62
2023/10/10 10:17:45;;;;;;;5.38;2.78;;;21.70;95.90;;;;;;5916475;23;45544;-62
2023/10/10 10:20:44;;;;;;;7.60;3.03;;;21.70;95.90;;;;;;5912316;22;45229;-62
2023/10/10 10:27:31;;;;;;;6.78;3.03;;;21.70;95.90;;;;;;5899973;23;45392;-62
2023/10/10 10:33:32;;;;;;;5.82;2.65;;;21.80;95.90;;;;;;5912114;23;45193;-62
2023/10/10 10:36:14;;;;;;;4.50;2.40;;;21.80;96.00;;;;;;5926897;22;45032;-62
2023/10/10 10:42:22;;;;;;;6.75;2.88;;;21.70;95.90;;;;;;5836536;23;45016;-62
2023/10/10 10:45:02;;;;;;;4.03;2.30;;;21.80;96.10;;;;;;5918932;23;44954;-62
2023/10/10 10:48:29;;;;;;;6.20;2.78;;;21.80;96.00;;;;;;5967063;23;45266;-62
2023/10/10 10:52:17;;;;;;;4.57;2.45;;;21.80;96.20;;;;;;5884311;23;47435;-62
2023/10/10 10:55:18;;;;;;;8.48;3.00;;;21.80;96.30;;;;;;5929340;23;45258;-61
2023/10/10 10:58:20;;;;;;;5.07;2.38;;;21.90;96.20;;;;;;5936544;22;44970;-61
2023/10/10 11:01:18;;;;;;;6.75;2.85;;;21.90;96.10;;;;;;5897295;22;45137;-62
2023/10/10 11:06:25;;;;;;;5.05;2.30;;;22.00;96.80;;;;;;5902208;22;45044;-59
2023/10/10 11:09:23;;;;;;;15.82;4.05;;;22.10;96.60;;;;;;5933320;23;45097;-61
2023/10/10 11:12:32;;;;;;;12.45;3.33;;;22.10;96.50;;;;;;5927840;23;45272;-61
2023/10/10 11:15:22;;;;;;;15.75;3.47;;;22.10;95.80;;;;;;5943541;23;46365;-61
2023/10/10 11:21:06;;;;;;;6.55;2.75;;;22.10;95.70;;;;;;5933343;22;45448;-61
2023/10/10 11:23:52;;;;;;;13.25;3.13;;;22.10;95.60;;;;;;5917128;23;45590;-60
2023/10/10 11:26:44;;;;;;;18.88;3.83;;;22.00;96.20;;;;;;5916596;23;45501;-61
2023/10/10 11:29:32;;;;;;;13.15;3.25;;;22.00;96.00;;;;;;5940043;23;45187;-61
2023/10/10 11:32:13;;;;;;;8.27;2.60;;;22.00;95.70;;;;;;5915371;23;45343;-61
2023/10/10 11:34:56;;;;;;;11.13;3.60;;;22.00;95.70;;;;;;5903211;23;45454;-68
2023/10/10 11:37:31;;;;;;;7.65;3.25;;;21.60;92.50;;;;;;5952795;23;46460;-67
2023/10/10 11:40:31;;;;;;;8.18;3.13;;;20.90;96.50;;;;;;5915672;23;44763;-64
2023/10/10 11:43:11;;;;;;;9.43;2.78;;;20.50;97.70;;;;;;5911531;22;45250;-64
2023/10/10 11:46:02;;;;;;;10.57;3.45;;;20.40;99.90;;;;;;5952520;23;45398;-65
2023/10/10 11:48:51;;;;;;;10.43;3.67;;;20.30;98.00;;;;;;5992236;23;46351;-67
2023/10/10 11:51:46;;;;;;;6.72;2.53;;;20.30;97.10;;;;;;5963804;23;45072;-65
2023/10/10 11:54:28;;;;;;;8.73;3.80;;;20.20;99.90;;;;;;5945231;23;45088;-67
2023/10/10 11:56:56;;;;;;;13.95;3.55;;;20.20;94.90;;;;;;5971443;23;45394;-67
2023/10/10 11:59:25;;;;;;;9.70;4.45;;;20.20;93.20;;;;;;5989597;23;46353;-62
2023/10/10 12:09:10;;;;;;;11.02;3.47;;;20.30;94.80;;;;;;5895924;23;45228;-62
2023/10/10 12:12:17;;;;;;;10.23;4.00;;;20.40;94.60;;;;;;5926100;23;47316;-62
2023/10/10 12:15:19;;;;;;;13.70;3.95;;;20.40;93.60;;;;;;5960694;23;45416;-63
2023/10/10 12:18:30;;;;;;;12.45;3.92;;;20.30;96.60;;;;;;5960881;23;45133;-63
2023/10/10 12:21:33;;;;;;;13.35;3.45;;;20.30;93.70;;;;;;5952179;23;45279;-63
2023/10/10 12:24:14;;;;;;;7.80;3.30;;;20.30;93.20;;;;;;5923123;23;45759;-63
2023/10/10 12:27:10;;;;;;;8.40;3.40;;;20.50;92.00;;;;;;5942987;23;44954;-61
2023/10/10 12:30:04;;;;;;;11.27;3.63;;;20.40;92.50;;;;;;5931719;23;45104;-62
2023/10/10 12:32:46;;;;;;;9.30;3.60;;;20.50;91.10;;;;;;5928962;23;45149;-62
2023/10/10 12:35:48;;;;;;;13.30;3.85;;;20.50;91.60;;;;;;5961282;23;46954;-63
2023/10/10 12:38:20;;;;;;;6.18;3.35;;;20.50;92.30;;;;;;5945234;23;45407;-63
2023/10/10 12:41:05;;;;;;;5.78;2.83;;;20.50;93.90;;;;;;5918581;23;45158;-62
2023/10/10 12:43:46;;;;;;;6.03;3.38;;;20.50;96.40;;;;;;5970921;23;45092;-63
2023/10/10 12:46:54;;;;;;;6.97;3.20;;;20.50;94.70;;;;;;5959568;23;46223;-65
2023/10/10 12:50:00;;;;;;;7.53;2.70;;;20.50;91.70;;;;;;5945300;23;45298;-66
2023/10/10 12:52:34;;;;;;;9.27;2.95;;;20.50;93.50;;;;;;5941970;23;45297;-65
2023/10/10 12:55:25;;;;;;;9.15;3.33;;;20.50;97.50;;;;;;5911868;23;45255;-63
2023/10/10 12:57:58;;;;;;;14.80;3.58;;;20.40;93.70;;;;;;5949045;22;47405;-61
2023/10/10 13:00:33;;;;;;;7.07;3.22;;;20.40;94.10;;;;;;5946041;23;45144;-64
2023/10/10 13:03:30;;;;;;;7.53;2.75;;;20.40;97.90;;;;;;5921107;23;44951;-63
2023/10/10 13:06:09;;;;;;;6.93;3.50;;;20.40;94.20;;;;;;5943251;23;45294;-63
2023/10/10 13:08:47;;;;;;;6.30;3.30;;;20.50;96.60;;;;;;5919747;23;45238;-64
2023/10/10 13:11:19;;;;;;;8.43;3.15;;;20.50;96.60;;;;;;5960543;23;45338;-61
2023/10/10 13:14:15;;;;;;;14.65;3.25;;;20.50;97.40;;;;;;5942229;23;45145;-61
2023/10/10 13:20:06;;;;;;;6.18;3.33;;;20.50;95.80;;;;;;5907798;23;45942;-61
2023/10/10 13:22:50;;;;;;;7.15;2.97;;;20.50;96.10;;;;;;5919285;23;45250;-63
2023/10/10 13:25:48;;;;;;;14.30;3.40;;;20.40;96.70;;;;;;5959917;23;44804;-63
2023/10/10 13:28:33;;;;;;;9.80;3.63;;;20.50;95.20;;;;;;5934986;23;45640;-63
2023/10/10 13:31:02;;;;;;;8.13;3.20;;;20.50;93.90;;;;;;5917823;23;45805;-62
2023/10/10 13:34:16;;;;;;;11.75;4.10;;;20.50;96.30;;;;;;5957932;23;45016;-62
2023/10/10 13:37:18;;;;;;;11.95;4.05;;;20.60;88.90;;;;;;5951530;23;45048;-62
2023/10/10 13:39:48;;;;;;;7.85;3.13;;;20.80;90.70;;;;;;5918335;23;45123;-61
2023/10/10 13:42:29;;;;;;;8.50;2.83;;;20.70;94.20;;;;;;5939995;23;46057;-62
2023/10/10 13:45:26;;;;;;;13.23;4.10;;;20.70;95.00;;;;;;5934084;23;45278;-62
2023/10/10 13:48:24;;;;;;;11.80;4.22;;;20.70;91.90;;;;;;5905949;23;44988;-62
2023/10/10 13:51:07;;;;;;;14.73;4.00;;;20.80;80.40;;;;;;5916714;23;44832;-62
2023/10/10 13:54:37;;;;;;;9.75;3.28;;;20.80;83.30;;;;;;5933014;23;45700;-62
2023/10/10 13:57:22;;;;;;;12.90;3.50;;;20.80;84.70;;;;;;5966994;23;44844;-61
2023/10/10 13:59:49;;;;;;;8.70;3.45;;;21.00;87.10;;;;;;5938189;23;45425;-62
2023/10/10 14:02:17;;;;;;;11.30;3.65;;;21.00;81.20;;;;;;5949504;23;45300;-62
2023/10/10 14:05:15;;;;;;;10.18;4.13;;;20.90;79.10;;;;;;5950297;23;46438;-62
2023/10/10 14:08:08;;;;;;;9.98;3.78;;;21.10;80.80;;;;;;5910682;23;45267;-62
2023/10/10 14:10:37;;;;;;;7.38;3.75;;;21.10;81.20;;;;;;5924236;23;45156;-62
2023/10/10 14:13:19;;;;;;;8.07;3.03;;;21.10;82.30;;;;;;5932067;23;45093;-62
2023/10/10 14:16:01;;;;;;;11.80;3.45;;;20.90;92.40;;;;;;5928729;23;45392;-61
2023/10/10 14:18:50;;;;;;;11.70;3.42;;;20.80;90.50;;;;;;5956337;23;45077;-62
2023/10/10 14:21:28;;;;;;;11.77;3.28;;;20.80;91.50;;;;;;5936071;23;45275;-62
2023/10/10 14:24:04;;;;;;;7.68;3.28;;;20.90;87.20;;;;;;5917005;23;45313;-62
2023/10/10 14:26:40;;;;;;;11.95;3.63;;;20.90;89.80;;;;;;5933648;23;46106;-62
2023/10/10 14:29:32;;;;;;;10.73;2.83;;;20.90;90.50;;;;;;5926001;23;45334;-62
2023/10/10 14:32:27;;;;;;;6.05;2.90;;;20.80;92.50;;;;;;5912429;22;45103;-61
2023/10/10 14:34:55;;;;;;;11.45;3.13;;;20.70;93.20;;;;;;5941630;23;45324;-61
2023/10/10 14:41:43;;;;;;;7.20;2.42;;;20.80;91.10;;;;;;5951768;23;45186;-61
2023/10/10 14:44:20;;;;;;;10.88;3.30;;;20.70;93.90;;;;;;5920041;23;44854;-61
2023/10/10 14:47:07;;;;;;;9.68;3.20;;;20.80;91.60;;;;;;5935548;23;45304;-61
2023/10/10 14:49:38;;;;;;;7.72;2.58;;;20.80;92.90;;;;;;5929365;23;46258;-61
2023/10/10 14:52:35;;;;;;;6.93;2.83;;;20.80;94.30;;;;;;5937625;23;45128;-61
2023/10/10 14:55:44;;;;;;;5.55;2.85;;;20.70;94.60;;;;;;5929112;22;45204;-61
2023/10/10 14:58:29;;;;;;;6.00;3.17;;;20.70;96.30;;;;;;5923701;23;45283;-61
2023/10/10 15:00:57;;;;;;;5.95;3.28;;;20.70;93.80;;;;;;5911937;23;46022;-61
2023/10/10 15:03:27;;;;;;;7.07;3.05;;;20.60;94.70;;;;;;5916512;23;45361;-61
2023/10/10 15:06:08;;;;;;;9.85;2.83;;;20.60;94.30;;;;;;5926058;23;45273;-61
2023/10/10 15:09:13;;;;;;;3.53;2.35;;;20.60;95.80;;;;;;5945084;22;45046;-61
2023/10/10 15:12:12;;;;;;;9.45;3.00;;;20.60;96.50;;;;;;5912773;23;45353;-61
2023/10/10 15:14:44;;;;;;;8.45;2.70;;;20.70;94.30;;;;;;5920785;23;45155;-61
2023/10/10 15:17:22;;;;;;;3.70;2.28;;;20.70;93.40;;;;;;5912955;23;45033;-61
2023/10/10 15:20:15;;;;;;;10.95;2.90;;;20.80;94.40;;;;;;5967072;23;44997;-61
2023/10/10 15:23:04;;;;;;;9.50;3.00;;;20.80;94.80;;;;;;5940459;23;46299;-61
2023/10/10 15:25:42;;;;;;;9.68;2.63;;;20.80;94.40;;;;;;5974578;23;45151;-61
2023/10/10 15:28:08;;;;;;;8.15;2.47;;;20.70;95.70;;;;;;5932470;23;45180;-61
2023/10/10 15:30:45;;;;;;;7.18;2.78;;;20.70;96.30;;;;;;5939414;23;45348;-61
2023/10/10 15:33:22;;;;;;;10.13;2.92;;;20.70;96.70;;;;;;5969235;23;45679;-61
2023/10/10 15:36:16;;;;;;;9.40;2.22;;;20.60;95.70;;;;;;5950027;23;45118;-63
2023/10/10 15:39:11;;;;;;;5.93;2.38;;;20.60;97.40;;;;;;5945163;23;45086;-68
2023/10/10 15:41:40;;;;;;;4.95;2.28;;;20.60;99.60;;;;;;5961176;23;45192;-65
2023/10/10 15:44:09;;;;;;;9.73;2.53;;;20.60;99.90;;;;;;5976332;23;46249;-72
2023/10/10 15:47:04;;;;;;;10.95;2.75;;;20.60;99.90;;;;;;6042521;23;45149;-72
2023/10/10 15:50:18;;;;;;;8.25;2.72;;;20.60;99.90;;;;;;5980857;23;45415;-67
2023/10/10 15:52:52;;;;;;;8.35;3.03;;;20.60;99.90;;;;;;5998590;22;44922;-73
2023/10/10 15:55:37;;;;;;;5.90;2.20;;;20.50;99.90;;;;;;6148325;23;46300;-78
2023/10/10 15:58:06;;;;;;;5.05;2.58;;;20.50;99.90;;;;;;6069100;23;45085;-74
2023/10/10 16:00:38;;;;;;;6.05;2.58;;;20.40;99.90;;;;;;5976355;23;45257;-76
2023/10/10 16:03:25;;;;;;;5.55;2.45;;;20.50;99.90;;;;;;5980963;23;45286;-73
2023/10/10 16:09:31;;;;;;;7.07;2.40;;;20.40;99.90;;;;;;5947912;23;44839;-73
2023/10/10 16:12:20;;;;;;;5.05;2.55;;;20.40;99.90;;;;;;5938159;23;44774;-73
2023/10/10 16:14:47;;;;;;;4.55;2.20;;;20.40;99.90;;;;;;6016733;23;45105;-71
2023/10/10 16:17:15;;;;;;;5.05;2.90;;;20.40;99.90;;;;;;6137247;23;46071;-78
2023/10/10 16:20:06;;;;;;;5.40;2.33;;;20.40;99.90;;;;;;6096278;23;44506;-76
2023/10/10 16:23:02;;;;;;;10.27;4.43;;;20.40;99.90;;;;;;5973432;23;45133;-76
2023/10/10 16:25:55;;;;;;;5.47;2.53;;;20.40;99.90;;;;;;6184329;23;44637;-79
2023/10/10 16:28:47;;;;;;;5.55;2.58;;;20.40;99.90;;;;;;6112808;23;47173;-75
2023/10/10 16:31:32;;;;;;;6.60;2.65;;;20.40;99.90;;;;;;5987932;23;45259;-75
2023/10/10 16:34:32;;;;;;;5.10;2.42;;;20.40;99.90;;;;;;5968754;23;45217;-73
2023/10/10 16:37:02;;;;;;;6.68;2.70;;;20.40;99.90;;;;;;5978917;23;45151;-75
2023/10/10 16:39:34;;;;;;;5.07;2.65;;;20.40;99.90;;;;;;5971358;23;46647;-73
2023/10/10 16:42:23;;;;;;;4.90;2.67;;;20.40;99.90;;;;;;5950369;23;45439;-75
2023/10/10 16:44:59;;;;;;;6.95;2.65;;;20.40;99.90;;;;;;5941224;23;45179;-75
2023/10/10 16:47:56;;;;;;;4.15;2.35;;;20.40;99.90;;;;;;5931581;22;45509;-71
2023/10/10 16:50:39;;;;;;;7.43;2.70;;;20.40;99.90;;;;;;6154216;23;47469;-77
2023/10/10 16:53:05;;;;;;;6.85;2.47;;;20.40;99.90;;;;;;6103110;23;45280;-75
2023/10/10 16:59:00;;;;;;;6.13;3.25;;;20.30;99.90;;;;;;5930447;23;45224;-73
2023/10/10 17:01:30;;;;;;;7.85;2.42;;;20.40;99.90;;;;;;5949796;23;46561;-75
2023/10/10 17:04:00;;;;;;;3.25;2.05;;;20.40;99.90;;;;;;5951224;23;45275;-76
2023/10/10 17:06:27;;;;;;;5.22;2.67;;;20.30;99.90;;;;;;5929617;23;45271;-75
2023/10/10 17:08:59;;;;;;;8.07;2.70;;;20.30;99.90;;;;;;5959209;23;45324;-72
2023/10/10 17:11:38;;;;;;;5.25;2.67;;;20.40;99.90;;;;;;5945063;23;48435;-76
2023/10/10 17:14:20;;;;;;;8.02;2.65;;;20.30;99.90;;;;;;5970245;23;44986;-73
2023/10/10 17:16:48;;;;;;;6.72;2.53;;;20.30;99.90;;;;;;5951842;23;44717;-77
2023/10/10 17:19:31;;;;;;;5.60;2.78;;;20.30;99.90;;;;;;6008793;23;45001;-72
2023/10/10 17:22:25;;;;;;;5.93;2.20;;;20.30;99.90;;;;;;6175889;23;46849;-76
2023/10/10 17:25:08;;;;;;;7.93;3.05;;;20.30;99.90;;;;;;6167136;23;45192;-75
2023/10/10 17:27:37;;;;;;;5.00;2.95;;;20.30;99.90;;;;;;6155195;23;45077;-76
2023/10/10 17:30:27;;;;;;;8.00;3.60;;;20.30;99.90;;;;;;6119419;23;45056;-77
2023/10/10 17:32:54;;;;;;;7.28;3.45;;;20.10;99.90;;;;;;6106701;23;48964;-76
2023/10/10 17:35:33;;;;;;;6.03;3.13;;;20.00;99.90;;;;;;6109122;23;45151;-75
2023/10/10 17:38:27;;;;;;;7.03;2.83;;;20.00;99.90;;;;;;6094474;23;45275;-75
2023/10/10 17:41:08;;;;;;;4.88;3.13;;;20.00;99.90;;;;;;6084619;23;45208;-76
2023/10/10 17:44:08;;;;;;;4.75;2.45;;;20.00;99.90;;;;;;6080165;23;46326;-75
2023/10/10 17:46:49;;;;;;;7.95;3.17;;;20.00;99.90;;;;;;6107249;23;45033;-75
2023/10/10 17:51:58;;;;;;;7.20;2.50;;;20.00;99.90;;;;;;6115085;22;45133;-74
2023/10/10 17:54:33;;;;;;;6.25;3.00;;;20.00;99.90;;;;;;6120559;23;47288;-72
2023/10/10 17:57:38;;;;;;;7.82;3.05;;;20.00;99.90;;;;;;5971946;23;45274;-74
2023/10/10 18:00:38;;;;;;;4.47;2.90;;;20.10;99.90;;;;;;6087415;23;45185;-68
2023/10/10 18:03:07;;;;;;;6.53;2.80;;;20.20;99.90;;;;;;5956323;23;45380;-72
2023/10/10 18:05:37;;;;;;;8.48;3.28;;;20.30;99.90;;;;;;5947969;23;47584;-69